createdAt,value
2022-08-27T00:01:08.721Z,40.88
2022-08-27T00:03:41.818Z,37.60
2022-08-27T00:06:11.709Z,39.50
2022-08-27T00:08:41.655Z,45.75
2022-08-27T00:11:11.759Z,41.30
2022-08-27T00:13:42.729Z,42.83
2022-08-27T00:16:16.855Z,47.40
2022-08-27T00:18:48.455Z,42.47
2022-08-27T00:21:18.975Z,40.95
2022-08-27T00:23:49.019Z,40.13
2022-08-27T00:26:19.069Z,37.53
2022-08-27T00:28:49.070Z,40.30
2022-08-27T00:31:27.457Z,38.42
2022-08-27T00:33:57.846Z,38.80
2022-08-27T00:36:28.016Z,36.33
2022-08-27T00:38:57.885Z,40.17
2022-08-27T00:41:27.730Z,34.17
2022-08-27T00:43:59.933Z,39.22
2022-08-27T00:46:38.734Z,41.13
2022-08-27T00:49:12.838Z,37.00
2022-08-27T00:51:43.321Z,36.85
2022-08-27T00:54:18.932Z,42.22
2022-08-27T00:56:51.704Z,40.15
2022-08-27T00:59:25.493Z,41.95
2022-08-27T01:02:10.885Z,37.13
2022-08-27T01:04:43.432Z,41.28
2022-08-27T01:07:14.460Z,39.28
2022-08-27T01:09:45.719Z,36.15
2022-08-27T01:12:15.782Z,37.60
2022-08-27T01:14:47.638Z,39.58
2022-08-27T01:17:20.417Z,37.03
2022-08-27T01:19:53.909Z,43.20
2022-08-27T01:22:33.848Z,36.45
2022-08-27T01:25:10.840Z,40.08
2022-08-27T01:27:41.983Z,42.45
2022-08-27T01:30:15.007Z,38.95
2022-08-27T01:32:47.004Z,40.28
2022-08-27T01:35:18.991Z,42.17
2022-08-27T01:37:52.324Z,48.10
2022-08-27T01:40:25.555Z,47.17
2022-08-27T01:42:58.175Z,42.40
2022-08-27T01:45:31.246Z,45.65
2022-08-27T01:48:01.416Z,45.05
2022-08-27T01:50:35.995Z,43.03
2022-08-27T01:53:08.069Z,43.15
2022-08-27T01:55:41.200Z,46.83
2022-08-27T01:58:17.691Z,48.28
2022-08-27T02:00:52.035Z,48.05
2022-08-27T02:03:27.312Z,44.25
2022-08-27T02:05:57.290Z,49.78
2022-08-27T02:08:27.146Z,48.67
2022-08-27T02:10:59.610Z,47.72
2022-08-27T02:13:29.642Z,50.15
2022-08-27T02:15:59.596Z,48.05
2022-08-27T02:18:29.598Z,49.03
2022-08-27T02:20:59.396Z,45.30
2022-08-27T02:23:29.479Z,43.20
2022-08-27T02:26:01.853Z,47.50
2022-08-27T02:28:31.724Z,45.28
2022-08-27T02:31:01.807Z,45.22
2022-08-27T02:33:32.910Z,47.28
2022-08-27T02:36:03.255Z,48.42
2022-08-27T02:38:33.484Z,48.78
2022-08-27T02:41:06.342Z,46.63
2022-08-27T02:43:36.450Z,44.67
2022-08-27T02:46:06.938Z,44.05
2022-08-27T02:48:38.959Z,44.13
2022-08-27T02:51:10.034Z,44.33
2022-08-27T02:53:40.393Z,44.55
2022-08-27T02:56:13.094Z,47.17
2022-08-27T02:58:44.028Z,43.17
2022-08-27T03:01:14.054Z,40.35
2022-08-27T03:03:44.530Z,41.85
2022-08-27T03:06:14.754Z,43.65
2022-08-27T03:08:52.268Z,39.22
2022-08-27T03:11:26.284Z,39.72
2022-08-27T03:13:56.324Z,41.03
2022-08-27T03:16:26.269Z,39.15
2022-08-27T03:18:53.634Z,38.47
2022-08-27T03:21:27.738Z,35.38
2022-08-27T03:23:57.652Z,36.63
2022-08-27T03:26:30.176Z,33.72
2022-08-27T03:29:00.407Z,34.58
2022-08-27T03:31:31.298Z,36.45
2022-08-27T03:34:03.367Z,34.60
2022-08-27T03:36:33.896Z,32.80
2022-08-27T03:39:03.754Z,33.47
2022-08-27T03:41:45.480Z,38.28
2022-08-27T03:44:25.047Z,39.83
2022-08-27T03:46:55.231Z,37.72
2022-08-27T03:49:26.205Z,40.85
2022-08-27T03:51:57.234Z,42.15
2022-08-27T03:54:27.365Z,44.67
2022-08-27T03:56:59.868Z,48.08
2022-08-27T03:59:29.730Z,48.85
2022-08-27T04:02:00.146Z,47.03
2022-08-27T04:04:31.041Z,53.28
2022-08-27T04:07:00.912Z,50.10
2022-08-27T04:09:30.846Z,54.10
2022-08-27T04:12:03.233Z,51.40
2022-08-27T04:14:33.911Z,51.67
2022-08-27T04:17:03.705Z,54.97
2022-08-27T04:19:34.173Z,56.92
2022-08-27T04:22:05.984Z,55.30
2022-08-27T04:24:37.416Z,53.50
2022-08-27T04:27:11.060Z,62.70
2022-08-27T04:29:41.007Z,56.85
2022-08-27T04:32:11.023Z,60.25
2022-08-27T04:34:40.991Z,56.88
2022-08-27T04:37:10.833Z,57.78
2022-08-27T04:39:40.834Z,57.95
2022-08-27T04:42:13.221Z,58.65
2022-08-27T04:44:43.082Z,51.60
2022-08-27T04:47:13.426Z,51.63
2022-08-27T04:49:43.524Z,56.10
2022-08-27T04:52:13.424Z,57.88
2022-08-27T04:54:43.315Z,52.42
2022-08-27T04:57:15.745Z,54.58
2022-08-27T04:59:45.585Z,53.70
2022-08-27T05:02:16.594Z,51.85
2022-08-27T05:04:47.018Z,51.35
2022-08-27T05:07:16.872Z,49.17
2022-08-27T05:09:46.669Z,57.03
2022-08-27T05:12:19.058Z,49.88
2022-08-27T05:14:48.951Z,51.95
2022-08-27T05:17:18.767Z,52.13
2022-08-27T05:19:49.364Z,51.58
2022-08-27T05:22:19.168Z,50.90
2022-08-27T05:24:50.538Z,51.95
2022-08-27T05:27:23.014Z,54.70
2022-08-27T05:29:53.090Z,53.15
2022-08-27T05:32:22.893Z,50.38
2022-08-27T05:34:52.985Z,52.08
2022-08-27T05:37:22.887Z,49.67
2022-08-27T05:39:52.810Z,49.42
2022-08-27T05:42:25.212Z,53.50
2022-08-27T05:44:55.617Z,49.20
2022-08-27T05:47:25.522Z,53.92
2022-08-27T05:49:55.541Z,55.08
2022-08-27T05:52:25.363Z,51.05
2022-08-27T05:54:55.307Z,53.30
2022-08-27T05:57:27.684Z,56.25
2022-08-27T06:00:09.972Z,55.70
2022-08-27T06:02:46.762Z,52.35
2022-08-27T06:05:16.635Z,58.00
2022-08-27T06:07:46.702Z,55.00
2022-08-27T06:10:19.843Z,61.78
2022-08-27T06:12:56.721Z,58.20
2022-08-27T06:15:26.920Z,55.58
2022-08-27T06:17:56.741Z,58.95
2022-08-27T06:20:29.313Z,58.95
2022-08-27T06:22:59.126Z,61.30
2022-08-27T06:25:29.014Z,60.38
2022-08-27T06:28:02.060Z,57.35
2022-08-27T06:30:31.867Z,53.13
2022-08-27T06:33:01.675Z,53.95
2022-08-27T06:35:34.032Z,53.45
2022-08-27T06:38:04.087Z,51.10
2022-08-27T06:40:34.046Z,52.63
2022-08-27T06:43:06.467Z,57.30
2022-08-27T06:45:40.772Z,54.08
2022-08-27T06:50:41.490Z,50.75
2022-08-27T06:53:11.534Z,45.67
2022-08-27T06:55:45.111Z,45.80
2022-08-27T06:58:19.625Z,49.33
2022-08-27T07:00:49.481Z,44.00
2022-08-27T07:03:19.720Z,47.35
2022-08-27T07:05:49.548Z,47.72
2022-08-27T07:08:19.349Z,51.33
2022-08-27T07:10:49.185Z,47.80
2022-08-27T07:13:21.638Z,47.05
2022-08-27T07:15:51.531Z,45.40
2022-08-27T07:18:27.224Z,46.55
2022-08-27T07:20:57.787Z,50.53
2022-08-27T07:23:28.714Z,46.25
2022-08-27T07:25:58.829Z,43.90
2022-08-27T07:28:31.618Z,46.38
2022-08-27T07:31:01.662Z,46.42
2022-08-27T07:33:31.628Z,36.40
2022-08-27T07:36:01.455Z,40.45
2022-08-27T07:38:31.249Z,36.25
2022-08-27T07:41:01.073Z,37.67
2022-08-27T07:43:45.978Z,41.53
2022-08-27T07:46:15.895Z,38.50
2022-08-27T07:48:45.856Z,38.10
2022-08-27T07:51:17.234Z,43.08
2022-08-27T07:53:47.707Z,44.72
2022-08-27T07:56:18.509Z,48.10
2022-08-27T07:58:51.156Z,43.63
2022-08-27T08:01:21.395Z,48.03
2022-08-27T08:03:51.252Z,46.92
2022-08-27T08:06:21.718Z,48.33
2022-08-27T08:08:52.027Z,47.92
2022-08-27T08:11:22.774Z,47.72
2022-08-27T08:13:55.167Z,50.38
2022-08-27T08:16:31.471Z,55.95
2022-08-27T08:19:02.186Z,61.88
2022-08-27T08:21:32.124Z,57.47
2022-08-27T08:24:02.456Z,52.92
2022-08-27T08:26:32.274Z,67.88
2022-08-27T08:29:05.166Z,36.90
2022-08-27T08:31:35.104Z,40.72
2022-08-27T08:34:04.987Z,51.25
2022-08-27T08:36:35.545Z,49.72
2022-08-27T08:39:05.410Z,55.58
2022-08-27T08:41:43.820Z,53.97
2022-08-27T08:44:33.578Z,50.63
2022-08-27T08:47:08.484Z,58.13
2022-08-27T08:49:54.726Z,58.83
2022-08-27T08:52:39.181Z,68.28
2022-08-27T08:55:20.208Z,65.97
2022-08-27T08:57:56.461Z,54.42
2022-08-27T09:00:28.899Z,48.25
2022-08-27T09:03:00.005Z,46.50
2022-08-27T09:05:31.083Z,55.33
2022-08-27T09:08:31.862Z,52.63
2022-08-27T09:11:07.236Z,56.25
2022-08-27T09:13:42.398Z,60.00
2022-08-27T09:16:14.834Z,69.43
2022-08-27T09:18:46.172Z,61.47
2022-08-27T09:21:33.911Z,63.20
2022-08-27T09:24:10.949Z,59.47
2022-08-27T09:26:42.939Z,63.95
2022-08-27T09:29:20.143Z,64.20
2022-08-27T09:31:59.589Z,63.45
2022-08-27T09:34:36.341Z,56.25
2022-08-27T09:37:10.451Z,59.80
2022-08-27T09:39:50.041Z,56.50
2022-08-27T09:42:32.283Z,56.08
2022-08-27T09:45:02.427Z,64.47
2022-08-27T09:47:44.857Z,66.63
2022-08-27T09:50:15.430Z,56.70
2022-08-27T09:52:55.281Z,59.45
2022-08-27T09:55:33.053Z,58.45
2022-08-27T09:58:06.170Z,52.28
2022-08-27T10:00:40.931Z,53.03
2022-08-27T10:03:14.673Z,56.28
2022-08-27T10:05:50.623Z,68.47
2022-08-27T10:08:28.372Z,58.00
2022-08-27T10:11:04.586Z,53.58
2022-08-27T10:13:43.336Z,55.30
2022-08-27T10:16:28.348Z,51.35
2022-08-27T10:19:12.269Z,46.85
2022-08-27T10:21:50.006Z,47.88
2022-08-27T10:24:30.551Z,47.58
2022-08-27T10:27:12.240Z,47.50
2022-08-27T10:29:51.642Z,46.60
2022-08-27T10:32:37.302Z,47.40
2022-08-27T10:35:16.602Z,46.00
2022-08-27T10:37:59.467Z,47.92
2022-08-27T10:40:36.054Z,46.35
2022-08-27T10:43:18.460Z,47.10
2022-08-27T10:45:56.059Z,45.95
2022-08-27T10:48:33.584Z,42.10
2022-08-27T10:51:13.007Z,47.83
2022-08-27T10:53:52.117Z,49.92
2022-08-27T10:56:29.992Z,45.45
2022-08-27T10:59:08.723Z,42.50
2022-08-27T11:01:48.041Z,41.75
2022-08-27T11:04:23.013Z,46.10
2022-08-27T11:07:01.352Z,46.65
2022-08-27T11:09:39.601Z,42.17
2022-08-27T11:12:14.865Z,43.70
2022-08-27T11:14:52.418Z,41.75
2022-08-27T11:17:32.086Z,49.33
2022-08-27T11:20:07.920Z,45.97
2022-08-27T11:22:44.222Z,39.67
2022-08-27T11:25:29.320Z,39.90
2022-08-27T11:28:01.089Z,36.38
2022-08-27T11:30:38.712Z,39.45
2022-08-27T11:33:17.350Z,38.17
2022-08-27T11:36:02.201Z,41.17
2022-08-27T11:38:48.500Z,48.00
2022-08-27T11:41:44.774Z,38.80
2022-08-27T11:44:16.632Z,40.63
2022-08-27T11:46:49.202Z,40.10
2022-08-27T11:49:28.749Z,41.15
2022-08-27T11:52:02.245Z,37.35
2022-08-27T11:54:47.012Z,46.60
2022-08-27T11:57:29.561Z,38.30
2022-08-27T12:00:00.263Z,40.83
2022-08-27T12:02:32.430Z,38.88
2022-08-27T12:05:14.217Z,40.83
2022-08-27T12:07:47.264Z,43.05
2022-08-27T12:10:41.238Z,43.97
2022-08-27T12:13:24.651Z,42.75
2022-08-27T12:16:12.383Z,41.85
2022-08-27T12:18:54.341Z,38.88
2022-08-27T12:21:33.021Z,41.60
2022-08-27T12:24:16.889Z,38.95
2022-08-27T12:26:58.661Z,38.30
2022-08-27T12:29:41.175Z,39.30
2022-08-27T12:32:28.921Z,34.97
2022-08-27T12:35:05.494Z,38.55
2022-08-27T12:37:38.877Z,37.17
2022-08-27T12:40:16.257Z,37.03
2022-08-27T12:42:53.250Z,35.88
2022-08-27T12:45:25.883Z,37.53
2022-08-27T12:47:57.947Z,40.80
2022-08-27T12:50:31.958Z,35.33
2022-08-27T12:53:24.360Z,37.72
2022-08-27T12:56:12.898Z,37.90
2022-08-27T12:58:53.209Z,33.13
2022-08-27T13:01:41.011Z,36.50
2022-08-27T13:04:23.265Z,32.17
2022-08-27T13:06:53.513Z,28.73
2022-08-27T13:09:29.857Z,36.13
2022-08-27T13:12:01.240Z,38.53
2022-08-27T13:14:39.223Z,33.58
2022-08-27T13:17:13.351Z,30.20
2022-08-27T13:19:50.958Z,28.90
2022-08-27T13:22:28.428Z,32.83
2022-08-27T13:24:59.814Z,35.53
2022-08-27T13:27:32.498Z,32.85
2022-08-27T13:30:22.975Z,37.20
2022-08-27T13:33:06.022Z,31.90
2022-08-27T13:35:37.595Z,30.13
2022-08-27T13:38:08.096Z,28.40
2022-08-27T13:40:53.005Z,29.45
2022-08-27T13:43:32.161Z,25.58
2022-08-27T13:46:09.633Z,29.77
2022-08-27T13:48:43.705Z,27.60
2022-08-27T13:51:15.171Z,26.58
2022-08-27T13:54:01.416Z,27.13
2022-08-27T13:56:33.477Z,26.98
2022-08-27T13:59:12.337Z,35.35
2022-08-27T14:01:58.073Z,31.65
2022-08-27T14:04:31.177Z,33.78
2022-08-27T14:07:01.037Z,30.35
2022-08-27T14:09:33.148Z,31.90
2022-08-27T14:12:06.010Z,30.70
2022-08-27T14:14:40.671Z,29.38
2022-08-27T14:17:29.484Z,26.88
2022-08-27T14:20:04.292Z,32.60
2022-08-27T14:22:34.503Z,31.80
2022-08-27T14:25:04.418Z,33.63
2022-08-27T14:27:34.595Z,35.42
2022-08-27T14:30:04.514Z,32.15
2022-08-27T14:32:36.990Z,31.17
2022-08-27T14:35:07.357Z,28.85
2022-08-27T14:37:37.359Z,32.22
2022-08-27T14:40:08.405Z,28.98
2022-08-27T14:42:41.128Z,30.77
2022-08-27T14:45:11.523Z,28.05
2022-08-27T14:47:45.319Z,28.17
2022-08-27T14:50:16.809Z,30.83
2022-08-27T14:52:46.627Z,29.35
2022-08-27T14:55:16.483Z,27.50
2022-08-27T14:57:46.913Z,30.83
2022-08-27T15:00:17.093Z,31.77
2022-08-27T15:02:51.518Z,28.25
2022-08-27T15:05:25.000Z,29.38
2022-08-27T15:07:58.166Z,31.95
2022-08-27T15:10:29.015Z,27.67
2022-08-27T15:12:59.594Z,27.92
2022-08-27T15:15:29.400Z,28.15
2022-08-27T15:18:04.544Z,28.30
2022-08-27T15:20:34.670Z,24.25
2022-08-27T15:23:05.911Z,24.75
2022-08-27T15:25:36.457Z,24.75
2022-08-27T15:28:06.952Z,22.02
2022-08-27T15:30:37.916Z,19.60
2022-08-27T15:33:10.720Z,21.83
2022-08-27T15:35:40.535Z,21.08
2022-08-27T15:38:10.928Z,20.42
2022-08-27T15:40:41.289Z,23.08
2022-08-27T15:43:13.503Z,21.05
2022-08-27T15:45:43.520Z,21.30
2022-08-27T15:48:15.958Z,19.75
2022-08-27T15:50:46.271Z,21.25
2022-08-27T15:53:16.548Z,23.13
2022-08-27T15:55:47.569Z,23.90
2022-08-27T15:58:17.446Z,25.80
2022-08-27T16:00:48.861Z,27.30
2022-08-27T16:03:35.466Z,28.63
2022-08-27T16:06:06.610Z,32.78
2022-08-27T16:08:36.783Z,32.10
2022-08-27T16:11:11.769Z,37.30
2022-08-27T16:13:41.671Z,38.90
2022-08-27T16:16:13.058Z,31.85
2022-08-27T16:18:45.753Z,36.92
2022-08-27T16:21:16.044Z,37.80
2022-08-27T16:23:46.004Z,37.22
2022-08-27T16:26:16.781Z,37.15
2022-08-27T16:28:46.834Z,32.10
2022-08-27T16:31:18.314Z,31.27
2022-08-27T16:33:51.215Z,34.78
2022-08-27T16:36:21.236Z,37.08
2022-08-27T16:38:51.176Z,29.35
2022-08-27T16:41:21.399Z,33.17
2022-08-27T16:43:51.215Z,32.03
2022-08-27T16:46:21.044Z,29.63
2022-08-27T16:49:06.570Z,31.05
2022-08-27T16:51:38.076Z,30.23
2022-08-27T16:54:09.695Z,30.67
2022-08-27T16:56:40.133Z,31.92
2022-08-27T16:59:13.054Z,33.22
2022-08-27T17:01:43.630Z,29.60
2022-08-27T17:04:28.230Z,28.10
2022-08-27T17:07:00.301Z,30.67
2022-08-27T17:09:30.657Z,30.30
2022-08-27T17:12:05.294Z,30.83
2022-08-27T17:14:38.007Z,27.73
2022-08-27T17:17:09.466Z,32.28
2022-08-27T17:19:42.171Z,32.20
2022-08-27T17:22:12.280Z,33.00
2022-08-27T17:24:42.510Z,37.20
2022-08-27T17:27:12.447Z,29.23
2022-08-27T17:29:42.299Z,32.95
2022-08-27T17:32:12.445Z,33.85
2022-08-27T17:34:44.967Z,29.25
2022-08-27T17:37:15.006Z,30.35
2022-08-27T17:39:46.997Z,35.92
2022-08-27T17:42:16.882Z,38.42
2022-08-27T17:44:46.772Z,33.10
2022-08-27T17:47:16.760Z,34.83
2022-08-27T17:49:49.314Z,30.23
2022-08-27T17:52:19.230Z,27.60
2022-08-27T17:54:51.256Z,27.00
2022-08-27T17:57:24.166Z,24.65
2022-08-27T17:59:55.333Z,14.82
2022-08-27T18:02:28.026Z,16.95
2022-08-27T18:05:00.692Z,12.18
2022-08-27T18:07:31.086Z,10.80
2022-08-27T18:10:01.556Z,10.07
2022-08-27T18:12:31.680Z,10.90
2022-08-27T18:15:08.387Z,9.50
2022-08-27T18:17:40.023Z,8.13
2022-08-27T18:20:16.787Z,7.50
2022-08-27T18:25:19.815Z,7.93
2022-08-27T18:27:52.775Z,8.23
2022-08-27T18:30:23.333Z,8.00
2022-08-27T18:32:53.616Z,7.75
2022-08-27T18:35:27.751Z,9.60
2022-08-27T18:37:58.009Z,8.05
2022-08-27T18:40:32.884Z,10.00
2022-08-27T18:43:02.841Z,9.30
2022-08-27T18:45:34.701Z,9.93
2022-08-27T18:48:05.686Z,12.68
2022-08-27T18:50:48.291Z,8.68
2022-08-27T18:53:20.421Z,8.82
2022-08-27T18:55:51.352Z,9.00
2022-08-27T18:58:21.481Z,10.15
2022-08-27T19:00:56.844Z,11.73
2022-08-27T19:03:30.543Z,12.45
2022-08-27T19:06:07.890Z,10.38
2022-08-27T19:08:39.564Z,11.18
2022-08-27T19:11:09.854Z,13.07
2022-08-27T19:13:39.887Z,10.70
2022-08-27T19:16:14.651Z,11.82
2022-08-27T19:18:45.647Z,13.32
2022-08-27T19:21:18.282Z,12.77
2022-08-27T19:23:48.205Z,11.93
2022-08-27T19:26:21.825Z,16.48
2022-08-27T19:28:51.659Z,11.13
2022-08-27T19:31:21.643Z,14.02
2022-08-27T19:33:52.174Z,12.80
2022-08-27T19:36:26.000Z,14.38
2022-08-27T19:38:58.351Z,15.60
2022-08-27T19:41:28.541Z,14.23
2022-08-27T19:43:58.633Z,15.02
2022-08-27T19:46:29.588Z,16.00
2022-08-27T19:48:59.448Z,14.43
2022-08-27T19:51:31.992Z,13.57
2022-08-27T19:54:01.996Z,13.07
2022-08-27T19:56:32.730Z,13.20
2022-08-27T19:59:16.189Z,13.00
2022-08-27T20:01:52.751Z,12.20
2022-08-27T20:04:22.858Z,12.73
2022-08-27T20:06:55.607Z,13.30
2022-08-27T20:09:25.701Z,12.32
2022-08-27T20:11:55.617Z,14.25
2022-08-27T20:14:25.452Z,14.70
2022-08-27T20:16:55.302Z,16.05
2022-08-27T20:19:25.925Z,13.57
2022-08-27T20:21:58.346Z,14.18
2022-08-27T20:24:28.185Z,14.27
2022-08-27T20:26:58.698Z,13.40
2022-08-27T20:29:32.435Z,16.63
2022-08-27T20:32:04.205Z,16.33
2022-08-27T20:34:34.932Z,13.40
2022-08-27T20:37:08.453Z,15.13
2022-08-27T20:39:38.331Z,13.48
2022-08-27T20:42:09.580Z,16.55
2022-08-27T20:44:39.409Z,16.80
2022-08-27T20:47:09.961Z,15.65
2022-08-27T20:49:41.538Z,16.67
2022-08-27T20:52:15.451Z,16.77
2022-08-27T20:54:45.304Z,16.85
2022-08-27T20:57:15.459Z,16.35
2022-08-27T20:59:57.813Z,16.80
2022-08-27T21:02:30.184Z,16.23
2022-08-27T21:05:00.693Z,19.88
2022-08-27T21:07:33.229Z,18.80
2022-08-27T21:10:03.118Z,15.85
2022-08-27T21:12:33.701Z,17.05
2022-08-27T21:15:05.308Z,18.40
2022-08-27T21:17:35.316Z,16.15
2022-08-27T21:20:06.037Z,18.58
2022-08-27T21:22:38.563Z,16.35
2022-08-27T21:25:09.367Z,18.30
2022-08-27T21:27:39.646Z,17.40
2022-08-27T21:30:12.538Z,15.68
2022-08-27T21:32:42.395Z,17.88
2022-08-27T21:35:12.763Z,19.88
2022-08-27T21:37:45.274Z,17.33
2022-08-27T21:40:15.402Z,20.80
2022-08-27T21:42:45.297Z,20.52
2022-08-27T21:45:15.390Z,19.77
2022-08-27T21:47:51.803Z,20.67
2022-08-27T21:50:22.702Z,22.13
2022-08-27T21:52:55.155Z,18.50
2022-08-27T21:55:25.367Z,17.02
2022-08-27T21:57:55.219Z,16.65
2022-08-27T22:00:41.096Z,16.33
2022-08-27T22:03:20.210Z,16.30
2022-08-27T22:05:50.563Z,17.85
2022-08-27T22:08:25.088Z,15.45
2022-08-27T22:10:59.367Z,18.00
2022-08-27T22:15:59.339Z,18.90
2022-08-27T22:18:29.270Z,18.27
2022-08-27T22:21:00.126Z,19.10
2022-08-27T22:23:32.581Z,19.83
2022-08-27T22:26:03.396Z,22.17
2022-08-27T22:28:33.281Z,20.60
2022-08-27T22:31:03.193Z,18.10
2022-08-27T22:33:33.152Z,20.45
2022-08-27T22:36:03.769Z,20.48
2022-08-27T22:38:36.463Z,19.52
2022-08-27T22:41:06.442Z,18.60
2022-08-27T22:43:37.730Z,22.23
2022-08-27T22:46:07.710Z,20.67
2022-08-27T22:48:37.691Z,21.08
2022-08-27T22:51:07.889Z,20.98
2022-08-27T22:56:14.169Z,21.33
2022-08-27T22:58:45.997Z,20.73
2022-08-27T23:01:20.587Z,22.92
2022-08-27T23:06:20.864Z,23.63
2022-08-27T23:08:53.484Z,19.58
2022-08-27T23:11:23.620Z,22.05
2022-08-27T23:13:53.519Z,21.50
2022-08-27T23:16:23.499Z,24.23
2022-08-27T23:18:53.576Z,24.27
2022-08-27T23:21:23.487Z,24.55
2022-08-27T23:23:55.985Z,25.15
2022-08-27T23:26:38.367Z,24.77
2022-08-27T23:29:11.185Z,31.15
2022-08-27T23:31:41.452Z,24.52
2022-08-27T23:34:11.311Z,24.17
2022-08-27T23:36:41.155Z,27.38
2022-08-27T23:39:13.637Z,24.15
2022-08-27T23:41:44.720Z,21.27
2022-08-27T23:44:15.713Z,21.58
2022-08-27T23:46:45.696Z,25.27
2022-08-27T23:49:16.102Z,27.52
2022-08-27T23:51:46.190Z,33.45
2022-08-27T23:54:18.658Z,26.75
2022-08-27T23:56:48.545Z,32.00
2022-08-27T23:59:18.457Z,32.22
